Terminal Aerodrome Forecast
Issued by NWS

Home | Current Version | Previous Version | Text Only | Print | Product List | Glossary On
Versions: 1 2 3 4 5 6 7 8 9 10 11 12 13 14 15 16 17 18 19 20 21 22 23 24 25 26 27 28
890
FTUS44 KLIX 130628 AAA
TAFHUM
TAF AMD
KHUM 130628Z 1306/1406 07004KT 1/4SM FG OVC003
     FM130730 04010KT P6SM SCT008
     FM131000 02008KT P6SM FEW250
     FM131600 05011KT P6SM SKC
     FM140000 07005KT P6SM SKC=

USA.gov is the U.S. government's official web portal to all federal, state and local government web resources and services.